LFSN/ENC METAR and TAF weather

Enter ICAO airport designator
Station Type Date Time Source
LFSN METAR 2022/01/23 12:30 UTC NOAA

LFSN 231230Z AUTO 07010KT 040V120 9999 BKN026 OVC031 06/01 Q1034


Station Type Date Time Source
LFSN Decoded METAR 2022/01/23 12:30 UTC NOAA

Nancy / Essey, France (LFSN) 48-41N 006-13E 217M
Jan 23, 2022 - 07:30 AM EST / 2022.01.23 1230 UTC
Wind: from the ENE (070 degrees) at 12 MPH (10 KT) (direction variable):0
Visibility: greater than 7 mile(s):0
Sky conditions: overcast
Temperature: 42 F (6 C)
Dew Point: 33 F (1 C)
Relative Humidity: 70%
Pressure (altimeter): 30.53 in. Hg (1034 hPa)
ob: LFSN 231230Z AUTO 07010KT 040V120 9999 BKN026 OVC031 06/01 Q1034
cycle: 12

Station Type Date Time Source
LFSN TAF 2012/03/14 16:58 UTC NOAA

TAF LFSN 141600Z 1416/1512 CNL

Example: see airport list